createdAt,value
2018-09-25T00:01:25.476Z,7.20
2018-09-25T00:03:59.544Z,7.20
2018-09-25T00:06:33.594Z,7.20
2018-09-25T00:09:07.635Z,7.20
2018-09-25T00:11:41.689Z,7.30
2018-09-25T00:14:15.673Z,7.20
2018-09-25T00:16:49.821Z,7.20
2018-09-25T00:19:23.868Z,7.20
2018-09-25T00:21:58.040Z,7.20
2018-09-25T00:24:32.053Z,7.10
2018-09-25T00:27:06.138Z,7.10
2018-09-25T00:29:40.231Z,7.00
2018-09-25T00:32:14.285Z,7.10
2018-09-25T00:34:48.405Z,7.10
2018-09-25T00:37:22.644Z,7.10
2018-09-25T00:39:56.772Z,7.10
2018-09-25T00:42:30.874Z,7.10
2018-09-25T00:45:04.886Z,7.00
2018-09-25T00:47:38.985Z,7.00
2018-09-25T00:50:13.181Z,6.90
2018-09-25T00:52:47.299Z,6.90
2018-09-25T00:55:21.429Z,6.90
2018-09-25T00:57:55.530Z,6.90
2018-09-25T01:00:29.652Z,6.90
2018-09-25T01:03:03.713Z,6.90
2018-09-25T01:05:37.775Z,6.90
2018-09-25T01:08:11.865Z,7.00
2018-09-25T01:10:45.996Z,7.00
2018-09-25T01:13:20.070Z,6.90
2018-09-25T01:15:54.091Z,7.00
2018-09-25T01:18:28.059Z,6.90
2018-09-25T01:21:02.184Z,6.90
2018-09-25T01:23:36.308Z,6.90
2018-09-25T01:26:10.228Z,6.90
2018-09-25T01:28:44.309Z,6.90
2018-09-25T01:31:18.482Z,6.90
2018-09-25T01:33:52.652Z,6.90
2018-09-25T01:36:26.723Z,7.00
2018-09-25T01:39:00.724Z,7.00
2018-09-25T01:41:34.832Z,6.90
2018-09-25T01:44:08.940Z,6.80
2018-09-25T01:46:43.048Z,6.80
2018-09-25T01:49:17.067Z,6.80
2018-09-25T01:51:51.079Z,6.80
2018-09-25T01:54:25.163Z,6.70
2018-09-25T01:56:59.181Z,6.70
2018-09-25T01:59:33.325Z,6.70
2018-09-25T02:02:07.429Z,6.70
2018-09-25T02:04:41.492Z,6.70
2018-09-25T02:07:15.667Z,6.70
2018-09-25T02:09:49.769Z,6.60
2018-09-25T02:12:23.784Z,6.50
2018-09-25T02:14:57.772Z,6.40
2018-09-25T02:17:31.868Z,6.30
2018-09-25T02:20:06.013Z,6.30
2018-09-25T02:22:40.068Z,6.30
2018-09-25T02:25:14.247Z,6.20
2018-09-25T02:27:48.232Z,6.30
2018-09-25T02:30:22.381Z,6.30
2018-09-25T02:32:56.313Z,6.30
2018-09-25T02:35:30.518Z,6.30
2018-09-25T02:38:04.499Z,6.40
2018-09-25T02:40:38.615Z,6.40
2018-09-25T02:43:12.631Z,6.40
2018-09-25T02:45:46.659Z,6.30
2018-09-25T02:48:20.704Z,6.40
2018-09-25T02:50:54.708Z,6.40
2018-09-25T02:53:28.784Z,6.40
2018-09-25T02:56:02.944Z,6.30
2018-09-25T02:58:36.897Z,6.40
2018-09-25T03:01:10.992Z,6.30
2018-09-25T03:03:45.092Z,6.30
2018-09-25T03:06:19.248Z,6.30
2018-09-25T03:08:53.867Z,6.30
2018-09-25T03:11:27.885Z,6.30
2018-09-25T03:14:02.015Z,6.20
2018-09-25T03:16:36.093Z,6.20
2018-09-25T03:19:10.162Z,6.20
2018-09-25T03:21:44.189Z,6.20
2018-09-25T03:24:18.346Z,6.20
2018-09-25T03:26:52.301Z,6.30
2018-09-25T03:29:26.266Z,6.30
2018-09-25T03:32:00.157Z,6.30
2018-09-25T03:34:34.176Z,6.30
2018-09-25T03:37:08.363Z,6.10
2018-09-25T03:39:42.556Z,6.10
2018-09-25T03:42:16.610Z,5.90
2018-09-25T03:44:50.941Z,5.90
2018-09-25T03:47:25.024Z,5.80
2018-09-25T03:49:59.003Z,5.70
2018-09-25T03:52:33.044Z,5.70
2018-09-25T03:55:07.136Z,5.60
2018-09-25T03:57:41.189Z,5.60
2018-09-25T04:00:14.805Z,5.60
2018-09-25T04:02:48.773Z,5.60
2018-09-25T04:05:22.787Z,5.50
2018-09-25T04:07:56.873Z,5.50
2018-09-25T04:10:31.606Z,5.40
2018-09-25T04:13:05.580Z,5.30
2018-09-25T04:15:39.652Z,5.30
2018-09-25T04:18:13.566Z,5.20
2018-09-25T04:20:47.634Z,5.20
2018-09-25T04:23:21.728Z,5.20
2018-09-25T04:25:55.777Z,5.30
2018-09-25T04:28:29.903Z,5.40
2018-09-25T04:31:03.987Z,5.50
2018-09-25T04:33:38.212Z,5.60
2018-09-25T04:36:12.380Z,5.70
2018-09-25T04:38:46.448Z,5.60
2018-09-25T04:41:20.535Z,5.60
2018-09-25T04:43:54.647Z,5.50
2018-09-25T04:46:28.640Z,5.50
2018-09-25T04:49:02.661Z,5.50
2018-09-25T04:51:36.744Z,5.50
2018-09-25T04:54:10.912Z,5.50
2018-09-25T04:56:45.132Z,5.50
2018-09-25T04:59:19.219Z,5.60
2018-09-25T05:01:53.365Z,5.70
2018-09-25T05:04:28.628Z,5.90
2018-09-25T05:07:02.893Z,6.10
2018-09-25T05:09:37.123Z,6.20
2018-09-25T05:12:11.417Z,6.30
2018-09-25T05:14:45.552Z,6.20
2018-09-25T05:17:19.599Z,6.10
2018-09-25T05:19:53.912Z,6.00
2018-09-25T05:22:28.127Z,5.90
2018-09-25T05:25:02.373Z,5.80
2018-09-25T05:27:36.450Z,5.80
2018-09-25T05:30:11.106Z,5.80
2018-09-25T05:32:45.247Z,5.90
2018-09-25T05:35:19.435Z,5.90
2018-09-25T05:37:53.608Z,5.90
2018-09-25T05:40:27.634Z,6.00
2018-09-25T05:43:02.182Z,6.10
2018-09-25T05:45:36.349Z,6.20
2018-09-25T05:48:10.658Z,6.30
2018-09-25T05:50:44.826Z,6.30
2018-09-25T05:53:18.923Z,6.30
2018-09-25T05:55:53.058Z,6.40
2018-09-25T05:58:27.065Z,6.40
2018-09-25T06:01:01.133Z,6.30
2018-09-25T06:03:35.249Z,6.30
2018-09-25T06:06:09.417Z,6.20
2018-09-25T06:08:43.667Z,6.30
2018-09-25T06:11:19.806Z,6.30
2018-09-25T06:13:53.966Z,6.40
2018-09-25T06:16:27.964Z,6.50
2018-09-25T06:19:02.156Z,6.50
2018-09-25T06:21:36.218Z,6.60
2018-09-25T06:24:10.236Z,6.70
2018-09-25T06:26:44.239Z,6.80
2018-09-25T06:29:18.356Z,6.90
2018-09-25T06:31:52.397Z,7.00
2018-09-25T06:34:26.627Z,7.10
2018-09-25T06:37:00.708Z,7.20
2018-09-25T06:39:34.905Z,7.30
2018-09-25T06:42:08.877Z,7.50
2018-09-25T06:44:42.879Z,7.60
2018-09-25T06:47:17.050Z,7.70
2018-09-25T06:49:51.136Z,7.90
2018-09-25T06:52:25.188Z,8.00
2018-09-25T06:54:59.500Z,8.10
2018-09-25T06:57:33.489Z,8.30
2018-09-25T07:00:07.614Z,8.50
2018-09-25T07:02:41.706Z,8.70
2018-09-25T07:05:15.910Z,9.00
2018-09-25T07:07:49.878Z,9.20
2018-09-25T07:10:24.210Z,9.50
2018-09-25T07:12:58.248Z,9.70
2018-09-25T07:15:33.219Z,9.70
2018-09-25T07:18:07.334Z,9.60
2018-09-25T07:20:41.464Z,9.60
2018-09-25T07:23:15.548Z,9.60
2018-09-25T07:25:49.678Z,9.50
2018-09-25T07:28:23.896Z,9.50
2018-09-25T07:30:58.002Z,9.30
2018-09-25T07:33:32.124Z,9.20
2018-09-25T07:36:06.205Z,9.00
2018-09-25T07:38:40.225Z,8.70
2018-09-25T07:41:14.504Z,8.70
2018-09-25T07:43:48.650Z,8.90
2018-09-25T07:46:22.786Z,9.20
2018-09-25T07:48:56.804Z,9.50
2018-09-25T07:51:30.967Z,9.80
2018-09-25T07:54:05.049Z,10.20
2018-09-25T07:56:39.218Z,10.30
2018-09-25T07:59:13.276Z,10.30
2018-09-25T08:01:47.500Z,10.30
2018-09-25T08:04:21.594Z,10.30
2018-09-25T08:06:55.725Z,10.40
2018-09-25T08:09:29.732Z,10.40
2018-09-25T08:12:04.878Z,10.50
2018-09-25T08:14:38.968Z,10.60
2018-09-25T08:17:12.979Z,10.60
2018-09-25T08:19:46.908Z,10.60
2018-09-25T08:22:21.057Z,10.60
2018-09-25T08:24:55.149Z,10.80
2018-09-25T08:27:29.209Z,11.00
2018-09-25T08:30:03.274Z,11.10
2018-09-25T08:32:37.283Z,11.20
2018-09-25T08:35:11.365Z,11.20
2018-09-25T08:37:45.436Z,11.20
2018-09-25T08:40:19.508Z,11.40
2018-09-25T08:42:53.644Z,11.30
2018-09-25T08:45:27.743Z,11.30
2018-09-25T08:48:01.783Z,11.40
2018-09-25T08:50:35.820Z,11.50
2018-09-25T08:53:10.005Z,11.60
2018-09-25T08:55:44.163Z,11.70
2018-09-25T08:58:18.207Z,12.00
2018-09-25T09:00:52.303Z,12.20
2018-09-25T09:03:26.443Z,12.30
2018-09-25T09:06:00.562Z,12.40
2018-09-25T09:08:34.753Z,12.30
2018-09-25T09:11:08.830Z,12.30
2018-09-25T09:13:42.919Z,12.30
2018-09-25T09:16:16.955Z,12.40
2018-09-25T09:18:51.057Z,12.40
2018-09-25T09:21:25.101Z,12.20
2018-09-25T09:23:59.280Z,12.00
2018-09-25T09:26:33.421Z,11.70
2018-09-25T09:29:07.635Z,11.60
2018-09-25T09:31:41.674Z,11.80
2018-09-25T09:34:15.770Z,12.20
2018-09-25T09:36:49.843Z,12.60
2018-09-25T09:39:23.941Z,12.80
2018-09-25T09:41:58.320Z,12.80
2018-09-25T09:44:32.286Z,13.00
2018-09-25T09:47:06.443Z,13.20
2018-09-25T09:49:40.472Z,13.40
2018-09-25T09:52:14.574Z,13.60
2018-09-25T09:54:48.708Z,13.70
2018-09-25T09:57:22.870Z,13.50
2018-09-25T09:59:56.959Z,13.50
2018-09-25T10:02:31.028Z,13.50
2018-09-25T10:05:05.161Z,13.50
2018-09-25T10:07:39.141Z,13.50
2018-09-25T10:10:13.356Z,13.20
2018-09-25T10:12:47.385Z,13.10
2018-09-25T10:15:21.352Z,13.20
2018-09-25T10:17:55.367Z,13.40
2018-09-25T10:20:29.488Z,13.60
2018-09-25T10:23:03.591Z,13.50
2018-09-25T10:25:37.779Z,13.60
2018-09-25T10:28:11.800Z,13.50
2018-09-25T10:30:45.928Z,13.40
2018-09-25T10:33:19.939Z,13.40
2018-09-25T10:35:54.137Z,13.30
2018-09-25T10:38:28.235Z,13.20
2018-09-25T10:41:02.472Z,13.00
2018-09-25T10:43:36.533Z,13.00
2018-09-25T10:46:10.608Z,12.90
2018-09-25T10:48:44.533Z,12.70
2018-09-25T10:51:18.712Z,12.70
2018-09-25T10:53:52.855Z,12.70
2018-09-25T10:56:26.957Z,12.60
2018-09-25T10:59:01.080Z,12.40
2018-09-25T11:01:35.206Z,12.30
2018-09-25T11:04:09.291Z,12.30
2018-09-25T11:06:43.426Z,12.20
2018-09-25T11:09:17.370Z,12.10
2018-09-25T11:11:51.468Z,12.30
2018-09-25T11:14:25.535Z,12.40
2018-09-25T11:16:59.682Z,12.50
2018-09-25T11:19:33.609Z,12.60
2018-09-25T11:22:07.670Z,12.70
2018-09-25T11:24:41.720Z,12.90
2018-09-25T11:27:15.884Z,13.10
2018-09-25T11:29:49.823Z,13.20
2018-09-25T11:32:23.963Z,13.30
2018-09-25T11:34:58.005Z,13.40
2018-09-25T11:37:32.191Z,13.30
2018-09-25T11:40:06.335Z,13.20
2018-09-25T11:42:40.464Z,13.20
2018-09-25T11:45:14.516Z,13.40
2018-09-25T11:47:48.612Z,13.60
2018-09-25T11:50:22.785Z,13.80
2018-09-25T11:52:57.019Z,13.70
2018-09-25T11:55:31.156Z,13.90
2018-09-25T11:58:05.313Z,14.10
2018-09-25T12:00:39.456Z,14.30
2018-09-25T12:03:13.352Z,14.40
2018-09-25T12:05:47.302Z,14.50
2018-09-25T12:08:21.405Z,14.50
2018-09-25T12:10:55.572Z,14.20
2018-09-25T12:13:29.642Z,13.90
2018-09-25T12:16:03.797Z,13.50
2018-09-25T12:18:37.948Z,13.10
2018-09-25T12:21:12.322Z,12.70
2018-09-25T12:23:46.288Z,12.40
2018-09-25T12:26:20.404Z,12.30
2018-09-25T12:28:54.511Z,12.20
2018-09-25T12:31:28.673Z,12.10
2018-09-25T12:34:02.745Z,12.10
2018-09-25T12:36:37.016Z,12.00
2018-09-25T12:39:12.966Z,12.00
2018-09-25T12:41:47.240Z,11.90
2018-09-25T12:44:21.247Z,11.90
2018-09-25T12:46:55.378Z,11.80
2018-09-25T12:49:29.418Z,11.60
2018-09-25T12:52:03.642Z,11.40
2018-09-25T12:54:37.712Z,10.60
2018-09-25T12:57:12.077Z,9.90
2018-09-25T12:59:46.085Z,9.30
2018-09-25T13:02:20.101Z,9.00
2018-09-25T13:04:54.157Z,8.80
2018-09-25T13:07:28.266Z,8.90
2018-09-25T13:10:02.266Z,9.10
2018-09-25T13:12:36.528Z,9.30
2018-09-25T13:15:10.601Z,9.70
2018-09-25T13:17:44.752Z,10.00
2018-09-25T13:20:18.755Z,10.20
2018-09-25T13:22:52.978Z,10.40
2018-09-25T13:25:27.090Z,10.60
2018-09-25T13:28:01.255Z,10.70
2018-09-25T13:30:35.385Z,10.80
2018-09-25T13:33:09.486Z,11.00
2018-09-25T13:35:43.380Z,11.00
2018-09-25T13:38:17.621Z,11.10
2018-09-25T13:40:51.737Z,11.10
2018-09-25T13:43:25.864Z,11.10
2018-09-25T13:46:00.047Z,11.00
2018-09-25T13:48:34.046Z,10.90
2018-09-25T13:51:08.167Z,10.70
2018-09-25T13:53:42.435Z,10.50
2018-09-25T13:56:16.545Z,10.30
2018-09-25T13:58:50.707Z,10.20
2018-09-25T14:01:24.900Z,10.20
2018-09-25T14:03:58.978Z,10.10
2018-09-25T14:06:33.075Z,10.10
2018-09-25T14:09:07.108Z,10.30
2018-09-25T14:11:41.140Z,10.60
2018-09-25T14:14:15.291Z,10.80
2018-09-25T14:16:49.371Z,11.10
2018-09-25T14:19:23.403Z,11.20
2018-09-25T14:21:57.445Z,11.30
2018-09-25T14:24:31.521Z,11.20
2018-09-25T14:27:05.723Z,11.10
2018-09-25T14:29:39.782Z,11.10
2018-09-25T14:32:13.830Z,11.20
2018-09-25T14:34:48.000Z,11.30
2018-09-25T14:37:22.204Z,11.40
2018-09-25T14:39:56.460Z,11.40
2018-09-25T14:42:30.559Z,11.40
2018-09-25T14:45:04.551Z,11.20
2018-09-25T14:47:38.625Z,11.10
2018-09-25T14:50:12.762Z,11.00
2018-09-25T14:52:46.820Z,11.00
2018-09-25T14:55:20.897Z,10.90
2018-09-25T14:57:54.891Z,10.90
2018-09-25T15:03:08.740Z,11.10
2018-09-25T15:05:43.150Z,11.20
2018-09-25T15:08:17.214Z,11.40
2018-09-25T15:10:51.353Z,11.40
2018-09-25T15:13:25.380Z,11.50
2018-09-25T15:15:59.509Z,11.50
2018-09-25T15:18:33.560Z,11.40
2018-09-25T15:21:07.688Z,11.30
2018-09-25T15:23:41.789Z,11.20
2018-09-25T15:26:15.829Z,11.10
2018-09-25T15:28:50.144Z,11.10
2018-09-25T15:31:24.247Z,11.20
2018-09-25T15:33:58.387Z,11.20
2018-09-25T15:36:32.611Z,11.20
2018-09-25T15:39:07.048Z,11.10
2018-09-25T15:41:43.763Z,11.10
2018-09-25T15:44:17.875Z,11.00
2018-09-25T15:46:51.888Z,11.00
2018-09-25T15:49:25.967Z,10.90
2018-09-25T15:52:00.000Z,10.80
2018-09-25T15:54:34.210Z,10.70
2018-09-25T15:57:08.349Z,10.50
2018-09-25T15:59:42.316Z,10.40
2018-09-25T16:02:16.532Z,10.30
2018-09-25T16:04:50.705Z,10.20
2018-09-25T16:07:24.866Z,10.00
2018-09-25T16:09:58.875Z,9.90
2018-09-25T16:12:33.755Z,9.90
2018-09-25T16:15:07.727Z,9.80
2018-09-25T16:17:41.831Z,9.70
2018-09-25T16:20:16.039Z,9.80
2018-09-25T16:22:50.091Z,9.70
2018-09-25T16:25:24.232Z,9.60
2018-09-25T16:27:58.403Z,9.60
2018-09-25T16:30:32.610Z,9.50
2018-09-25T16:33:06.574Z,9.40
2018-09-25T16:35:40.854Z,9.30
2018-09-25T16:38:14.892Z,9.20
2018-09-25T16:40:49.074Z,9.00
2018-09-25T16:43:23.220Z,8.80
2018-09-25T16:45:57.648Z,8.70
2018-09-25T16:48:31.633Z,8.50
2018-09-25T16:51:05.765Z,8.30
2018-09-25T16:53:39.963Z,8.20
2018-09-25T16:56:14.273Z,8.00
2018-09-25T16:58:48.364Z,8.00
2018-09-25T17:01:22.462Z,7.90
2018-09-25T17:03:56.616Z,7.70
2018-09-25T17:06:30.790Z,7.60
2018-09-25T17:09:05.032Z,7.50
2018-09-25T17:11:39.137Z,7.60
2018-09-25T17:14:13.203Z,7.50
2018-09-25T17:16:47.259Z,7.50
2018-09-25T17:19:21.562Z,7.50
2018-09-25T17:21:55.787Z,7.40
2018-09-25T17:24:37.008Z,7.30
2018-09-25T17:27:11.089Z,7.10
2018-09-25T17:29:45.213Z,7.00
2018-09-25T17:32:19.310Z,6.80
2018-09-25T17:34:53.439Z,6.70
2018-09-25T17:37:27.525Z,6.60
2018-09-25T17:40:01.754Z,6.50
2018-09-25T17:42:35.832Z,6.40
2018-09-25T17:45:10.040Z,6.30
2018-09-25T17:47:44.236Z,6.10
2018-09-25T17:50:18.309Z,6.10
2018-09-25T17:52:52.407Z,6.10
2018-09-25T17:55:26.524Z,6.00
2018-09-25T17:58:00.670Z,6.00
2018-09-25T18:00:35.469Z,5.90
2018-09-25T18:03:10.041Z,5.80
2018-09-25T18:05:44.142Z,5.70
2018-09-25T18:08:19.358Z,5.60
2018-09-25T18:10:53.436Z,5.50
2018-09-25T18:13:27.493Z,5.40
2018-09-25T18:16:01.688Z,5.30
2018-09-25T18:18:35.723Z,5.20
2018-09-25T18:21:09.804Z,5.10
2018-09-25T18:23:44.018Z,5.00
2018-09-25T18:26:18.105Z,4.90
2018-09-25T18:28:52.347Z,4.80
2018-09-25T18:31:27.028Z,4.80
2018-09-25T18:34:01.312Z,4.70
2018-09-25T18:36:35.535Z,4.60
2018-09-25T18:39:11.112Z,4.60
2018-09-25T18:44:53.643Z,4.40
2018-09-25T18:47:28.429Z,4.40
2018-09-25T18:50:02.546Z,4.40
2018-09-25T18:52:36.738Z,4.40
2018-09-25T18:55:11.910Z,4.40
2018-09-25T18:57:46.130Z,4.50
2018-09-25T19:00:20.869Z,4.40
2018-09-25T19:02:54.969Z,4.40
2018-09-25T19:05:29.377Z,4.30
2018-09-25T19:08:03.502Z,4.30
2018-09-25T19:10:37.663Z,4.30
2018-09-25T19:13:11.793Z,4.30
2018-09-25T19:15:46.603Z,4.20
2018-09-25T19:18:20.814Z,4.20
2018-09-25T19:20:55.197Z,4.20
2018-09-25T19:23:29.301Z,4.10
2018-09-25T19:26:03.412Z,4.00
2018-09-25T19:28:37.524Z,4.00
2018-09-25T19:31:11.552Z,3.90
2018-09-25T19:33:45.752Z,3.80
2018-09-25T19:36:19.856Z,3.80
2018-09-25T19:38:54.065Z,3.70
2018-09-25T19:41:28.126Z,3.60
2018-09-25T19:44:05.601Z,3.60
2018-09-25T19:46:39.990Z,3.60
2018-09-25T19:49:14.472Z,3.50
2018-09-25T19:51:48.668Z,3.40
2018-09-25T19:54:24.290Z,3.40
2018-09-25T19:56:58.505Z,3.40
2018-09-25T19:59:33.708Z,3.30
2018-09-25T20:02:07.849Z,3.20
2018-09-25T20:04:41.938Z,3.20
2018-09-25T20:07:16.085Z,3.20
2018-09-25T20:09:50.263Z,3.20
2018-09-25T20:12:24.445Z,3.10
2018-09-25T20:14:58.635Z,3.10
2018-09-25T20:17:32.730Z,3.10
2018-09-25T20:20:06.783Z,3.00
2018-09-25T20:22:40.927Z,3.00
2018-09-25T20:25:15.055Z,3.00
2018-09-25T20:27:51.036Z,2.90
2018-09-25T20:30:25.241Z,2.90
2018-09-25T20:32:59.291Z,2.80
2018-09-25T20:35:34.488Z,2.80
2018-09-25T20:38:08.759Z,2.80
2018-09-25T20:40:43.093Z,2.80
2018-09-25T20:43:18.499Z,2.80
2018-09-25T20:45:52.705Z,2.70
2018-09-25T20:48:26.716Z,2.70
2018-09-25T20:51:00.838Z,2.70
2018-09-25T20:53:35.137Z,2.60
2018-09-25T20:56:09.220Z,2.60
2018-09-25T20:58:44.678Z,2.50
2018-09-25T21:01:18.967Z,2.60
2018-09-25T21:03:53.184Z,2.50
2018-09-25T21:06:27.381Z,2.50
2018-09-25T21:09:01.781Z,2.50
2018-09-25T21:11:36.256Z,2.40
2018-09-25T21:14:13.061Z,2.40
2018-09-25T21:16:47.112Z,2.40
2018-09-25T21:19:21.229Z,2.30
2018-09-25T21:21:55.675Z,2.30
2018-09-25T21:24:29.718Z,2.40
2018-09-25T21:27:03.937Z,2.30
2018-09-25T21:29:39.213Z,2.30
2018-09-25T21:32:13.338Z,2.20
2018-09-25T21:34:47.527Z,2.30
2018-09-25T21:37:21.911Z,2.20
2018-09-25T21:39:56.030Z,2.20
2018-09-25T21:42:31.357Z,2.20
2018-09-25T21:45:05.509Z,2.20
2018-09-25T21:47:39.587Z,2.20
2018-09-25T21:50:13.752Z,2.10
2018-09-25T21:52:47.958Z,2.10
2018-09-25T21:55:22.073Z,2.20
2018-09-25T21:57:56.372Z,2.10
2018-09-25T22:00:30.511Z,2.10
2018-09-25T22:03:04.636Z,2.10
2018-09-25T22:05:38.806Z,2.00
2018-09-25T22:08:17.122Z,2.00
2018-09-25T22:10:51.385Z,2.00
2018-09-25T22:13:25.500Z,2.00
2018-09-25T22:15:59.764Z,1.90
2018-09-25T22:18:34.100Z,1.90
2018-09-25T22:21:08.224Z,1.90
2018-09-25T22:23:42.385Z,1.90
2018-09-25T22:26:17.075Z,1.80
2018-09-25T22:28:51.296Z,1.80
2018-09-25T22:31:25.300Z,1.80
2018-09-25T22:33:59.448Z,1.70
2018-09-25T22:36:33.445Z,1.70
2018-09-25T22:39:07.643Z,1.70
2018-09-25T22:41:41.664Z,1.70
2018-09-25T22:44:15.882Z,1.60
2018-09-25T22:46:49.965Z,1.70
2018-09-25T22:49:24.180Z,1.60
2018-09-25T22:51:58.240Z,1.60
2018-09-25T22:54:32.237Z,1.60
2018-09-25T22:57:06.332Z,1.60
2018-09-25T22:59:40.518Z,1.50
2018-09-25T23:02:14.690Z,1.50
2018-09-25T23:04:48.823Z,1.50
2018-09-25T23:07:22.925Z,1.50
2018-09-25T23:09:57.142Z,1.50
2018-09-25T23:12:31.156Z,1.50
2018-09-25T23:15:05.242Z,1.50
2018-09-25T23:17:39.436Z,1.50
2018-09-25T23:20:13.590Z,1.50
2018-09-25T23:22:47.712Z,1.50
2018-09-25T23:25:21.749Z,1.50
2018-09-25T23:27:55.840Z,1.50
2018-09-25T23:30:30.046Z,1.50
2018-09-25T23:33:04.032Z,1.50
2018-09-25T23:35:38.266Z,1.50
2018-09-25T23:38:12.295Z,1.50
2018-09-25T23:40:48.263Z,1.50
2018-09-25T23:43:30.449Z,1.50
2018-09-25T23:48:06.771Z,1.50
2018-09-25T23:50:41.688Z,1.60
2018-09-25T23:53:15.712Z,1.50
2018-09-25T23:55:52.920Z,1.50
2018-09-25T23:58:25.201Z,1.50
